sensor_id;sensor_type;location;lat;lon;timestamp;pressure;altitude;pressure_sealevel;temperature;humidity
62942;BME280;49042;47.318;19.874;2023-09-19T00:01:28;99994.50;;;21.03;100.00
62942;BME280;49042;47.318;19.874;2023-09-19T00:04:32;99990.06;;;21.04;100.00
62942;BME280;49042;47.318;19.874;2023-09-19T00:07:34;99996.47;;;20.93;100.00
62942;BME280;49042;47.318;19.874;2023-09-19T00:10:38;99990.44;;;20.85;100.00
62942;BME280;49042;47.318;19.874;2023-09-19T00:13:41;99990.34;;;20.91;100.00
62942;BME280;49042;47.318;19.874;2023-09-19T00:16:43;99988.72;;;20.82;100.00
62942;BME280;49042;47.318;19.874;2023-09-19T00:19:46;99988.84;;;20.74;100.00
62942;BME280;49042;47.318;19.874;2023-09-19T00:22:48;99986.13;;;20.81;100.00
62942;BME280;49042;47.318;19.874;2023-09-19T00:25:50;99993.19;;;20.80;100.00
62942;BME280;49042;47.318;19.874;2023-09-19T00:28:52;99981.72;;;20.80;100.00
62942;BME280;49042;47.318;19.874;2023-09-19T00:31:55;99985.37;;;20.72;100.00
62942;BME280;49042;47.318;19.874;2023-09-19T00:34:58;99977.47;;;20.69;100.00
62942;BME280;49042;47.318;19.874;2023-09-19T00:38:00;99970.41;;;20.70;100.00
62942;BME280;49042;47.318;19.874;2023-09-19T00:41:02;99989.91;;;20.65;100.00
62942;BME280;49042;47.318;19.874;2023-09-19T00:44:04;99981.16;;;20.62;100.00
62942;BME280;49042;47.318;19.874;2023-09-19T00:47:06;99984.63;;;20.65;100.00
62942;BME280;49042;47.318;19.874;2023-09-19T00:50:08;99981.22;;;20.59;100.00
62942;BME280;49042;47.318;19.874;2023-09-19T00:53:20;99972.56;;;20.47;100.00
62942;BME280;49042;47.318;19.874;2023-09-19T00:56:24;99978.75;;;20.46;100.00
62942;BME280;49042;47.318;19.874;2023-09-19T00:59:27;99980.59;;;20.42;100.00
62942;BME280;49042;47.318;19.874;2023-09-19T01:02:29;99979.75;;;20.42;100.00
62942;BME280;49042;47.318;19.874;2023-09-19T01:05:33;99968.34;;;20.37;100.00
62942;BME280;49042;47.318;19.874;2023-09-19T01:08:35;99978.09;;;20.35;100.00
62942;BME280;49042;47.318;19.874;2023-09-19T01:11:40;99977.22;;;20.34;100.00
62942;BME280;49042;47.318;19.874;2023-09-19T01:14:53;99968.28;;;20.40;100.00
62942;BME280;49042;47.318;19.874;2023-09-19T01:18:26;99972.75;;;20.36;100.00
62942;BME280;49042;47.318;19.874;2023-09-19T01:21:43;99971.03;;;20.35;100.00
62942;BME280;49042;47.318;19.874;2023-09-19T01:28:32;99957.03;;;20.27;100.00
62942;BME280;49042;47.318;19.874;2023-09-19T01:31:40;99962.28;;;20.31;100.00
62942;BME280;49042;47.318;19.874;2023-09-19T01:34:52;99957.69;;;20.40;100.00
62942;BME280;49042;47.318;19.874;2023-09-19T01:37:55;99952.41;;;20.40;100.00
62942;BME280;49042;47.318;19.874;2023-09-19T01:41:05;99964.50;;;20.53;100.00
62942;BME280;49042;47.318;19.874;2023-09-19T01:44:20;99958.31;;;20.56;100.00
62942;BME280;49042;47.318;19.874;2023-09-19T01:47:35;99962.63;;;20.60;100.00
62942;BME280;49042;47.318;19.874;2023-09-19T01:50:59;99959.12;;;20.58;100.00
62942;BME280;49042;47.318;19.874;2023-09-19T01:54:04;99954.53;;;20.68;100.00
62942;BME280;49042;47.318;19.874;2023-09-19T01:57:29;99946.53;;;20.71;100.00
62942;BME280;49042;47.318;19.874;2023-09-19T02:00:37;99945.75;;;20.66;100.00
62942;BME280;49042;47.318;19.874;2023-09-19T02:03:43;99945.41;;;20.83;100.00
62942;BME280;49042;47.318;19.874;2023-09-19T02:06:46;99940.19;;;20.80;100.00
62942;BME280;49042;47.318;19.874;2023-09-19T02:09:51;99932.94;;;20.89;100.00
62942;BME280;49042;47.318;19.874;2023-09-19T02:12:53;99932.37;;;20.74;100.00
62942;BME280;49042;47.318;19.874;2023-09-19T02:15:55;99925.91;;;20.86;100.00
62942;BME280;49042;47.318;19.874;2023-09-19T02:18:57;99931.34;;;20.81;100.00
62942;BME280;49042;47.318;19.874;2023-09-19T02:22:00;99923.38;;;20.81;100.00
62942;BME280;49042;47.318;19.874;2023-09-19T02:25:05;99923.38;;;20.81;100.00
62942;BME280;49042;47.318;19.874;2023-09-19T02:28:06;99918.94;;;20.82;100.00
62942;BME280;49042;47.318;19.874;2023-09-19T02:31:10;99938.22;;;20.90;100.00
62942;BME280;49042;47.318;19.874;2023-09-19T02:34:12;99928.62;;;20.84;100.00
62942;BME280;49042;47.318;19.874;2023-09-19T02:37:15;99928.44;;;20.92;100.00
62942;BME280;49042;47.318;19.874;2023-09-19T02:40:17;99927.75;;;20.82;100.00
62942;BME280;49042;47.318;19.874;2023-09-19T02:43:23;99931.44;;;20.75;100.00
62942;BME280;49042;47.318;19.874;2023-09-19T02:46:25;99919.75;;;20.85;100.00
62942;BME280;49042;47.318;19.874;2023-09-19T02:49:27;99918.03;;;20.83;100.00
62942;BME280;49042;47.318;19.874;2023-09-19T02:52:29;99917.28;;;20.76;100.00
62942;BME280;49042;47.318;19.874;2023-09-19T02:55:31;99919.06;;;20.77;100.00
62942;BME280;49042;47.318;19.874;2023-09-19T02:58:33;99908.34;;;20.82;100.00
62942;BME280;49042;47.318;19.874;2023-09-19T03:01:37;99914.78;;;20.68;100.00
62942;BME280;49042;47.318;19.874;2023-09-19T03:04:40;99920.06;;;20.70;100.00
62942;BME280;49042;47.318;19.874;2023-09-19T03:07:42;99916.28;;;20.83;100.00
62942;BME280;49042;47.318;19.874;2023-09-19T03:10:47;99916.59;;;20.66;100.00
62942;BME280;49042;47.318;19.874;2023-09-19T03:13:53;99916.75;;;20.57;100.00
62942;BME280;49042;47.318;19.874;2023-09-19T03:16:55;99915.13;;;20.51;100.00
62942;BME280;49042;47.318;19.874;2023-09-19T03:19:57;99922.44;;;20.38;100.00
62942;BME280;49042;47.318;19.874;2023-09-19T03:22:59;99918.97;;;20.32;100.00
62942;BME280;49042;47.318;19.874;2023-09-19T03:26:01;99916.44;;;20.26;100.00
62942;BME280;49042;47.318;19.874;2023-09-19T03:29:04;99908.44;;;20.29;100.00
62942;BME280;49042;47.318;19.874;2023-09-19T03:32:08;99904.03;;;20.30;100.00
62942;BME280;49042;47.318;19.874;2023-09-19T03:35:12;99900.72;;;20.15;100.00
62942;BME280;49042;47.318;19.874;2023-09-19T03:38:16;99904.28;;;20.14;100.00
62942;BME280;49042;47.318;19.874;2023-09-19T03:41:17;99898.19;;;20.07;100.00
62942;BME280;49042;47.318;19.874;2023-09-19T03:44:19;99900.06;;;20.02;100.00
62942;BME280;49042;47.318;19.874;2023-09-19T03:47:21;99893.03;;;20.01;100.00
62942;BME280;49042;47.318;19.874;2023-09-19T03:50:23;99894.66;;;20.10;100.00
62942;BME280;49042;47.318;19.874;2023-09-19T03:53:25;99891.12;;;20.09;100.00
62942;BME280;49042;47.318;19.874;2023-09-19T03:56:27;99892.97;;;20.04;100.00
62942;BME280;49042;47.318;19.874;2023-09-19T03:59:30;99899.94;;;20.08;100.00
62942;BME280;49042;47.318;19.874;2023-09-19T04:02:32;99895.59;;;20.04;100.00
62942;BME280;49042;47.318;19.874;2023-09-19T04:05:34;99895.78;;;19.95;100.00
62942;BME280;49042;47.318;19.874;2023-09-19T04:08:36;99903.88;;;19.84;100.00
62942;BME280;49042;47.318;19.874;2023-09-19T04:11:38;99900.06;;;20.00;100.00
62942;BME280;49042;47.318;19.874;2023-09-19T04:14:40;99908.34;;;19.82;100.00
62942;BME280;49042;47.318;19.874;2023-09-19T04:17:41;99911.88;;;19.80;100.00
62942;BME280;49042;47.318;19.874;2023-09-19T04:20:48;99906.75;;;19.71;100.00
62942;BME280;49042;47.318;19.874;2023-09-19T04:23:51;99912.16;;;19.63;100.00
62942;BME280;49042;47.318;19.874;2023-09-19T04:26:53;99919.22;;;19.63;100.00
62942;BME280;49042;47.318;19.874;2023-09-19T04:29:54;99928.19;;;19.51;100.00
62942;BME280;49042;47.318;19.874;2023-09-19T04:33:00;99927.38;;;19.47;100.00
62942;BME280;49042;47.318;19.874;2023-09-19T04:36:07;99925.63;;;19.46;100.00
62942;BME280;49042;47.318;19.874;2023-09-19T04:39:29;99926.66;;;19.34;100.00
62942;BME280;49042;47.318;19.874;2023-09-19T04:42:30;99917.78;;;19.38;100.00
62942;BME280;49042;47.318;19.874;2023-09-19T04:45:32;99927.53;;;19.34;100.00
62942;BME280;49042;47.318;19.874;2023-09-19T04:48:34;99924.09;;;19.29;100.00
62942;BME280;49042;47.318;19.874;2023-09-19T04:51:36;99931.81;;;19.45;100.00
62942;BME280;49042;47.318;19.874;2023-09-19T04:54:38;99934.44;;;19.45;100.00
62942;BME280;49042;47.318;19.874;2023-09-19T04:57:41;99938.06;;;19.39;100.00
62942;BME280;49042;47.318;19.874;2023-09-19T05:00:43;99930.13;;;19.39;100.00
62942;BME280;49042;47.318;19.874;2023-09-19T05:03:45;99930.97;;;19.41;100.00
62942;BME280;49042;47.318;19.874;2023-09-19T05:06:50;99935.53;;;19.30;100.00
62942;BME280;49042;47.318;19.874;2023-09-19T05:09:52;99942.44;;;19.40;100.00
62942;BME280;49042;47.318;19.874;2023-09-19T05:12:54;99939.47;;;19.64;100.00
62942;BME280;49042;47.318;19.874;2023-09-19T05:16:00;99943.06;;;19.60;100.00
62942;BME280;49042;47.318;19.874;2023-09-19T05:19:03;99938.56;;;19.66;100.00
62942;BME280;49042;47.318;19.874;2023-09-19T05:22:05;99944.44;;;19.86;100.00
62942;BME280;49042;47.318;19.874;2023-09-19T05:25:09;99948.72;;;19.93;100.00
62942;BME280;49042;47.318;19.874;2023-09-19T05:28:12;99948.28;;;20.21;100.00
62942;BME280;49042;47.318;19.874;2023-09-19T05:31:16;99956.22;;;20.21;100.00
62942;BME280;49042;47.318;19.874;2023-09-19T05:34:18;99952.56;;;20.30;100.00
62942;BME280;49042;47.318;19.874;2023-09-19T05:37:21;99941.97;;;20.30;100.00
62942;BME280;49042;47.318;19.874;2023-09-19T05:40:23;99950.09;;;20.69;100.00
62942;BME280;49042;47.318;19.874;2023-09-19T05:43:26;99941.63;;;20.95;100.00
62942;BME280;49042;47.318;19.874;2023-09-19T05:46:27;99946.50;;;21.19;100.00
62942;BME280;49042;47.318;19.874;2023-09-19T05:49:31;99943.44;;;21.38;100.00
62942;BME280;49042;47.318;19.874;2023-09-19T05:52:33;99958.78;;;22.03;100.00
62942;BME280;49042;47.318;19.874;2023-09-19T05:55:35;99959.59;;;22.42;100.00
62942;BME280;49042;47.318;19.874;2023-09-19T05:58:37;99962.00;;;22.51;100.00
62942;BME280;49042;47.318;19.874;2023-09-19T06:01:40;99962.78;;;22.55;100.00
62942;BME280;49042;47.318;19.874;2023-09-19T06:04:42;99964.53;;;22.56;100.00
62942;BME280;49042;47.318;19.874;2023-09-19T06:07:43;99955.84;;;22.84;100.00
62942;BME280;49042;47.318;19.874;2023-09-19T06:10:46;99962.87;;;22.52;100.00
62942;BME280;49042;47.318;19.874;2023-09-19T06:13:48;99958.75;;;22.75;100.00
62942;BME280;49042;47.318;19.874;2023-09-19T06:16:51;99964.00;;;22.78;100.00
62942;BME280;49042;47.318;19.874;2023-09-19T06:20:18;99967.72;;;23.03;100.00
62942;BME280;49042;47.318;19.874;2023-09-19T06:23:41;99975.91;;;23.57;100.00
62942;BME280;49042;47.318;19.874;2023-09-19T06:26:43;99971.88;;;24.01;100.00
62942;BME280;49042;47.318;19.874;2023-09-19T06:29:46;99982.53;;;24.28;100.00
62942;BME280;49042;47.318;19.874;2023-09-19T06:32:48;99977.31;;;24.25;100.00
62942;BME280;49042;47.318;19.874;2023-09-19T06:35:54;99986.75;;;24.36;100.00
62942;BME280;49042;47.318;19.874;2023-09-19T06:39:17;99986.72;;;24.63;100.00
62942;BME280;49042;47.318;19.874;2023-09-19T06:42:19;99986.75;;;24.36;100.00
62942;BME280;49042;47.318;19.874;2023-09-19T06:45:23;99989.28;;;24.66;100.00
62942;BME280;49042;47.318;19.874;2023-09-19T06:48:29;99990.59;;;25.30;100.00
62942;BME280;49042;47.318;19.874;2023-09-19T06:51:31;99989.41;;;26.06;98.68
62942;BME280;49042;47.318;19.874;2023-09-19T06:54:32;99999.56;;;25.27;100.00
62942;BME280;49042;47.318;19.874;2023-09-19T06:57:35;100002.69;;;24.63;100.00
62942;BME280;49042;47.318;19.874;2023-09-19T07:00:37;100001.72;;;24.13;100.00
62942;BME280;49042;47.318;19.874;2023-09-19T07:03:40;99999.94;;;23.84;100.00
62942;BME280;49042;47.318;19.874;2023-09-19T07:06:42;100007.19;;;24.08;100.00
62942;BME280;49042;47.318;19.874;2023-09-19T07:09:44;100000.41;;;23.98;100.00
62942;BME280;49042;47.318;19.874;2023-09-19T07:12:46;100009.03;;;23.77;100.00
62942;BME280;49042;47.318;19.874;2023-09-19T07:15:47;100021.75;;;23.05;100.00
62942;BME280;49042;47.318;19.874;2023-09-19T07:18:51;100024.84;;;23.21;100.00
62942;BME280;49042;47.318;19.874;2023-09-19T07:21:53;100030.09;;;23.24;100.00
62942;BME280;49042;47.318;19.874;2023-09-19T07:24:55;100025.53;;;23.60;100.00
62942;BME280;49042;47.318;19.874;2023-09-19T07:27:58;100024.56;;;22.98;100.00
62942;BME280;49042;47.318;19.874;2023-09-19T07:31:02;100032.94;;;22.84;100.00
62942;BME280;49042;47.318;19.874;2023-09-19T07:34:08;100041.19;;;23.07;100.00
62942;BME280;49042;47.318;19.874;2023-09-19T07:37:11;100033.94;;;23.44;100.00
62942;BME280;49042;47.318;19.874;2023-09-19T07:40:18;100041.72;;;23.20;100.00
62942;BME280;49042;47.318;19.874;2023-09-19T07:43:20;100048.41;;;22.68;100.00
62942;BME280;49042;47.318;19.874;2023-09-19T07:46:22;100056.97;;;22.06;100.00
62942;BME280;49042;47.318;19.874;2023-09-19T07:49:26;100072.16;;;21.99;100.00
62942;BME280;49042;47.318;19.874;2023-09-19T07:52:28;100072.88;;;22.06;100.00
62942;BME280;49042;47.318;19.874;2023-09-19T07:55:30;100081.91;;;21.99;100.00
62942;BME280;49042;47.318;19.874;2023-09-19T07:58:32;100097.03;;;21.95;100.00
62942;BME280;49042;47.318;19.874;2023-09-19T08:01:35;100107.19;;;21.29;100.00
62942;BME280;49042;47.318;19.874;2023-09-19T08:04:37;100096.97;;;21.07;100.00
62942;BME280;49042;47.318;19.874;2023-09-19T08:07:40;100103.44;;;20.89;100.00
62942;BME280;49042;47.318;19.874;2023-09-19T08:10:42;100119.03;;;20.54;100.00
62942;BME280;49042;47.318;19.874;2023-09-19T08:13:47;100116.84;;;20.81;100.00
62942;BME280;49042;47.318;19.874;2023-09-19T08:16:50;100121.16;;;20.85;100.00
62942;BME280;49042;47.318;19.874;2023-09-19T08:19:52;100117.22;;;20.58;100.00
62942;BME280;49042;47.318;19.874;2023-09-19T08:22:54;100128.91;;;20.44;100.00
62942;BME280;49042;47.318;19.874;2023-09-19T08:25:57;100137.34;;;20.70;100.00
62942;BME280;49042;47.318;19.874;2023-09-19T08:29:00;100138.09;;;20.19;100.00
62942;BME280;49042;47.318;19.874;2023-09-19T08:32:07;100155.69;;;20.22;100.00
62942;BME280;49042;47.318;19.874;2023-09-19T08:35:10;100142.69;;;20.65;100.00
62942;BME280;49042;47.318;19.874;2023-09-19T08:38:12;100146.47;;;21.07;100.00
62942;BME280;49042;47.318;19.874;2023-09-19T08:41:17;100142.69;;;21.68;100.00
62942;BME280;49042;47.318;19.874;2023-09-19T08:44:18;100150.13;;;21.49;100.00
62942;BME280;49042;47.318;19.874;2023-09-19T08:47:37;100148.72;;;21.29;100.00
62942;BME280;49042;47.318;19.874;2023-09-19T08:50:56;100147.78;;;21.33;100.00
62942;BME280;49042;47.318;19.874;2023-09-19T08:54:06;100153.91;;;21.35;100.00
62942;BME280;49042;47.318;19.874;2023-09-19T08:57:09;100146.69;;;21.44;100.00
62942;BME280;49042;47.318;19.874;2023-09-19T09:00:13;100139.78;;;22.24;100.00
62942;BME280;49042;47.318;19.874;2023-09-19T09:03:16;100127.94;;;22.39;100.00
62942;BME280;49042;47.318;19.874;2023-09-19T09:06:22;100132.22;;;22.05;100.00
62942;BME280;49042;47.318;19.874;2023-09-19T09:09:24;100134.50;;;22.61;100.00
62942;BME280;49042;47.318;19.874;2023-09-19T09:12:26;100136.44;;;22.92;100.00
62942;BME280;49042;47.318;19.874;2023-09-19T09:15:29;100134.53;;;22.59;100.00
62942;BME280;49042;47.318;19.874;2023-09-19T09:18:33;100138.59;;;21.98;100.00
62942;BME280;49042;47.318;19.874;2023-09-19T09:21:35;100141.44;;;22.28;100.00
62942;BME280;49042;47.318;19.874;2023-09-19T09:24:57;100151.47;;;22.55;100.00
62942;BME280;49042;47.318;19.874;2023-09-19T09:28:06;100155.87;;;22.16;100.00
62942;BME280;49042;47.318;19.874;2023-09-19T09:31:22;100164.94;;;22.07;100.00
62942;BME280;49042;47.318;19.874;2023-09-19T09:34:32;100163.59;;;21.38;100.00
62942;BME280;49042;47.318;19.874;2023-09-19T09:37:35;100168.47;;;21.12;100.00
62942;BME280;49042;47.318;19.874;2023-09-19T09:40:48;100181.56;;;21.22;100.00
62942;BME280;49042;47.318;19.874;2023-09-19T09:43:55;100180.94;;;20.48;100.00
62942;BME280;49042;47.318;19.874;2023-09-19T09:46:57;100180.69;;;20.65;100.00
62942;BME280;49042;47.318;19.874;2023-09-19T09:50:34;100176.06;;;20.79;100.00
62942;BME280;49042;47.318;19.874;2023-09-19T09:53:39;100176.50;;;21.07;100.00
62942;BME280;49042;47.318;19.874;2023-09-19T09:59:57;100170.56;;;21.44;100.00
62942;BME280;49042;47.318;19.874;2023-09-19T10:03:20;100168.34;;;21.66;100.00
62942;BME280;49042;47.318;19.874;2023-09-19T10:06:25;100151.72;;;22.44;100.00
62942;BME280;49042;47.318;19.874;2023-09-19T10:09:28;100150.22;;;22.32;100.00
62942;BME280;49042;47.318;19.874;2023-09-19T10:12:32;100142.66;;;22.14;100.00
62942;BME280;49042;47.318;19.874;2023-09-19T10:15:39;100144.50;;;22.09;100.00
62942;BME280;49042;47.318;19.874;2023-09-19T10:18:50;100133.72;;;22.55;100.00
62942;BME280;49042;47.318;19.874;2023-09-19T10:21:56;100130.72;;;22.33;100.00
62942;BME280;49042;47.318;19.874;2023-09-19T10:25:00;100139.41;;;21.55;100.00
62942;BME280;49042;47.318;19.874;2023-09-19T10:28:12;100137.66;;;21.54;100.00
62942;BME280;49042;47.318;19.874;2023-09-19T10:31:19;100142.25;;;21.89;100.00
62942;BME280;49042;47.318;19.874;2023-09-19T10:34:23;100123.41;;;22.81;100.00
62942;BME280;49042;47.318;19.874;2023-09-19T10:37:27;100125.97;;;24.14;100.00
62942;BME280;49042;47.318;19.874;2023-09-19T10:40:32;100125.50;;;24.86;100.00
62942;BME280;49042;47.318;19.874;2023-09-19T10:43:38;100129.47;;;26.68;100.00
62942;BME280;49042;47.318;19.874;2023-09-19T10:46:41;100135.56;;;27.96;93.95
62942;BME280;49042;47.318;19.874;2023-09-19T10:49:44;100134.28;;;28.42;85.97
62942;BME280;49042;47.318;19.874;2023-09-19T10:52:48;100127.78;;;28.29;79.07
62942;BME280;49042;47.318;19.874;2023-09-19T10:56:01;100132.47;;;29.16;75.39
62942;BME280;49042;47.318;19.874;2023-09-19T10:59:11;100132.63;;;30.30;73.00
62942;BME280;49042;47.318;19.874;2023-09-19T11:02:16;100130.03;;;29.79;69.29
62942;BME280;49042;47.318;19.874;2023-09-19T11:05:19;100118.13;;;30.32;66.90
62942;BME280;49042;47.318;19.874;2023-09-19T11:08:21;100129.59;;;30.83;63.37
62942;BME280;49042;47.318;19.874;2023-09-19T11:14:41;100122.72;;;30.63;63.69
62942;BME280;49042;47.318;19.874;2023-09-19T11:17:43;100127.34;;;29.79;61.41
62942;BME280;49042;47.318;19.874;2023-09-19T11:24:35;100138.19;;;27.98;71.76
62942;BME280;49042;47.318;19.874;2023-09-19T11:31:41;100138.13;;;32.37;51.42
62942;BME280;49042;47.318;19.874;2023-09-19T11:34:46;100125.50;;;33.83;44.91
62942;BME280;49042;47.318;19.874;2023-09-19T11:44:32;100155.87;;;30.63;54.86
62942;BME280;49042;47.318;19.874;2023-09-19T11:47:40;100165.75;;;32.13;52.23
62942;BME280;49042;47.318;19.874;2023-09-19T11:50:44;100165.19;;;28.12;66.28
62942;BME280;49042;47.318;19.874;2023-09-19T11:53:46;100183.94;;;30.10;58.02
62942;BME280;49042;47.318;19.874;2023-09-19T11:56:51;100172.03;;;30.94;54.70
62942;BME280;49042;47.318;19.874;2023-09-19T11:59:53;100176.00;;;30.72;58.93
62942;BME280;49042;47.318;19.874;2023-09-19T12:03:00;100172.22;;;31.22;57.50
62942;BME280;49042;47.318;19.874;2023-09-19T12:06:11;100179.56;;;30.08;60.45
62942;BME280;49042;47.318;19.874;2023-09-19T12:09:19;100173.16;;;27.54;71.57
62942;BME280;49042;47.318;19.874;2023-09-19T12:12:22;100182.31;;;28.67;64.98
62942;BME280;49042;47.318;19.874;2023-09-19T12:15:27;100180.28;;;29.61;61.58
62942;BME280;49042;47.318;19.874;2023-09-19T12:18:31;100193.47;;;29.48;62.03
62942;BME280;49042;47.318;19.874;2023-09-19T12:21:33;100191.09;;;28.88;67.69
62942;BME280;49042;47.318;19.874;2023-09-19T12:24:37;100192.06;;;28.30;69.06
62942;BME280;49042;47.318;19.874;2023-09-19T12:27:44;100174.56;;;27.83;66.96
62942;BME280;49042;47.318;19.874;2023-09-19T12:30:49;100186.28;;;28.77;65.16
62942;BME280;49042;47.318;19.874;2023-09-19T12:33:54;100180.97;;;31.26;58.80
62942;BME280;49042;47.318;19.874;2023-09-19T12:37:23;100189.44;;;31.49;53.39
62942;BME280;49042;47.318;19.874;2023-09-19T12:40:32;100195.91;;;34.46;45.10
62942;BME280;49042;47.318;19.874;2023-09-19T12:43:35;100193.72;;;32.95;45.85
62942;BME280;49042;47.318;19.874;2023-09-19T12:46:39;100193.25;;;31.61;48.86
62942;BME280;49042;47.318;19.874;2023-09-19T12:50:12;100185.25;;;31.74;48.99
62942;BME280;49042;47.318;19.874;2023-09-19T12:53:25;100184.00;;;31.80;48.04
62942;BME280;49042;47.318;19.874;2023-09-19T12:56:27;100177.81;;;33.31;44.70
62942;BME280;49042;47.318;19.874;2023-09-19T12:59:30;100183.16;;;31.64;46.63
62942;BME280;49042;47.318;19.874;2023-09-19T13:06:34;100182.84;;;31.84;46.89
62942;BME280;49042;47.318;19.874;2023-09-19T13:09:36;100187.59;;;31.66;46.04
62942;BME280;49042;47.318;19.874;2023-09-19T13:12:39;100177.09;;;31.15;46.00
62942;BME280;49042;47.318;19.874;2023-09-19T13:15:53;100191.97;;;28.89;50.68
62942;BME280;49042;47.318;19.874;2023-09-19T13:18:55;100188.12;;;26.95;61.33
62942;BME280;49042;47.318;19.874;2023-09-19T13:21:59;100201.91;;;25.67;70.21
62942;BME280;49042;47.318;19.874;2023-09-19T13:25:00;100193.78;;;25.19;75.27
62942;BME280;49042;47.318;19.874;2023-09-19T13:28:04;100189.75;;;25.07;80.90
62942;BME280;49042;47.318;19.874;2023-09-19T13:31:06;100192.03;;;25.18;83.38
62942;BME280;49042;47.318;19.874;2023-09-19T13:34:08;100198.78;;;24.74;84.76
62942;BME280;49042;47.318;19.874;2023-09-19T13:37:10;100195.03;;;24.52;88.78
62942;BME280;49042;47.318;19.874;2023-09-19T13:40:14;100201.16;;;24.54;89.65
62942;BME280;49042;47.318;19.874;2023-09-19T13:43:16;100205.50;;;24.58;90.59
62942;BME280;49042;47.318;19.874;2023-09-19T13:46:18;100204.75;;;24.82;90.95
62942;BME280;49042;47.318;19.874;2023-09-19T13:49:27;100215.28;;;24.58;94.62
62942;BME280;49042;47.318;19.874;2023-09-19T13:52:29;100214.94;;;24.96;91.87
62942;BME280;49042;47.318;19.874;2023-09-19T13:55:32;100216.31;;;24.81;90.86
62942;BME280;49042;47.318;19.874;2023-09-19T13:58:33;100206.06;;;24.68;91.64
62942;BME280;49042;47.318;19.874;2023-09-19T14:01:35;100209.87;;;24.59;94.83
62942;BME280;49042;47.318;19.874;2023-09-19T14:04:37;100207.41;;;24.82;93.61
62942;BME280;49042;47.318;19.874;2023-09-19T14:07:39;100212.84;;;24.50;95.34
62942;BME280;49042;47.318;19.874;2023-09-19T14:10:42;100215.22;;;24.59;96.89
62942;BME280;49042;47.318;19.874;2023-09-19T14:13:44;100213.28;;;24.65;97.84
62942;BME280;49042;47.318;19.874;2023-09-19T14:16:50;100219.41;;;24.96;94.94
62942;BME280;49042;47.318;19.874;2023-09-19T14:19:53;100205.81;;;25.03;94.23
62942;BME280;49042;47.318;19.874;2023-09-19T14:22:55;100215.25;;;24.87;94.70
62942;BME280;49042;47.318;19.874;2023-09-19T14:26:00;100208.50;;;25.03;95.37
62942;BME280;49042;47.318;19.874;2023-09-19T14:29:02;100214.59;;;24.80;96.45
62942;BME280;49042;47.318;19.874;2023-09-19T14:32:05;100211.75;;;25.13;92.66
62942;BME280;49042;47.318;19.874;2023-09-19T14:35:07;100217.63;;;25.51;87.30
62942;BME280;49042;47.318;19.874;2023-09-19T14:38:11;100210.91;;;25.39;89.79
62942;BME280;49042;47.318;19.874;2023-09-19T14:41:13;100212.03;;;25.04;92.37
62942;BME280;49042;47.318;19.874;2023-09-19T14:44:15;100207.91;;;25.22;93.13
62942;BME280;49042;47.318;19.874;2023-09-19T14:47:17;100217.97;;;24.85;89.96
62942;BME280;49042;47.318;19.874;2023-09-19T14:50:20;100215.41;;;25.11;87.97
62942;BME280;49042;47.318;19.874;2023-09-19T14:53:23;100223.00;;;26.01;81.88
62942;BME280;49042;47.318;19.874;2023-09-19T14:56:26;100233.59;;;26.02;84.00
62942;BME280;49042;47.318;19.874;2023-09-19T14:59:31;100216.87;;;26.21;81.87
62942;BME280;49042;47.318;19.874;2023-09-19T15:02:33;100220.00;;;26.57;77.55
62942;BME280;49042;47.318;19.874;2023-09-19T15:05:36;100225.97;;;26.63;76.33
62942;BME280;49042;47.318;19.874;2023-09-19T15:08:38;100230.94;;;26.95;74.84
62942;BME280;49042;47.318;19.874;2023-09-19T15:11:40;100241.19;;;25.63;85.37
62942;BME280;49042;47.318;19.874;2023-09-19T15:14:42;100238.78;;;26.78;79.28
62942;BME280;49042;47.318;19.874;2023-09-19T15:17:44;100250.50;;;26.27;79.42
62942;BME280;49042;47.318;19.874;2023-09-19T15:20:46;100246.53;;;25.10;88.36
62942;BME280;49042;47.318;19.874;2023-09-19T15:23:49;100258.00;;;25.93;83.72
62942;BME280;49042;47.318;19.874;2023-09-19T15:26:51;100262.72;;;26.10;82.45
62942;BME280;49042;47.318;19.874;2023-09-19T15:29:52;100255.91;;;26.96;77.83
62942;BME280;49042;47.318;19.874;2023-09-19T15:32:55;100269.50;;;26.19;83.66
62942;BME280;49042;47.318;19.874;2023-09-19T15:39:07;100263.22;;;25.70;86.19
62942;BME280;49042;47.318;19.874;2023-09-19T15:42:12;100275.28;;;25.82;84.79
62942;BME280;49042;47.318;19.874;2023-09-19T15:45:14;100275.31;;;25.28;90.11
62942;BME280;49042;47.318;19.874;2023-09-19T15:48:17;100279.25;;;24.58;97.72
62942;BME280;49042;47.318;19.874;2023-09-19T15:51:23;100280.81;;;23.69;100.00
62942;BME280;49042;47.318;19.874;2023-09-19T15:54:26;100279.75;;;23.40;100.00
62942;BME280;49042;47.318;19.874;2023-09-19T15:57:29;100281.84;;;23.27;100.00
62942;BME280;49042;47.318;19.874;2023-09-19T16:00:33;100286.31;;;22.86;100.00
62942;BME280;49042;47.318;19.874;2023-09-19T16:03:39;100278.91;;;22.61;100.00
62942;BME280;49042;47.318;19.874;2023-09-19T16:06:42;100285.13;;;22.60;100.00
62942;BME280;49042;47.318;19.874;2023-09-19T16:09:44;100284.75;;;22.36;100.00
62942;BME280;49042;47.318;19.874;2023-09-19T16:12:46;100283.88;;;22.34;100.00
62942;BME280;49042;47.318;19.874;2023-09-19T16:15:48;100283.34;;;22.16;100.00
62942;BME280;49042;47.318;19.874;2023-09-19T16:18:55;100288.91;;;22.03;100.00
62942;BME280;49042;47.318;19.874;2023-09-19T16:22:03;100285.25;;;22.09;100.00